Time;durP1;ratioP1;P1;durP2;ratioP2;P2;SDS_P1;SDS_P2;PMS_P1;PMS_P2;Temp;Humidity;BMP_temperature;BMP_pressure;BME280_temperature;BME280_humidity;BME280_pressure;Samples;Min_cycle;Max_cycle;Signal;HPM_P1;HPM_P2
2023/08/01 00:00:43;;;;;;;8.73;4.17;;;;;;;18.20;100.00;156040.69;5047124;28;20917;-78
2023/08/01 00:03:09;;;;;;;6.13;3.60;;;;;;;18.16;100.00;156030.25;5046208;28;20479;-78
2023/08/01 00:05:37;;;;;;;4.70;3.70;;;;;;;18.14;100.00;156025.06;5052122;28;20459;-77
2023/08/01 00:08:04;;;;;;;4.73;3.37;;;;;;;18.13;100.00;156022.50;5034172;28;20997;-77
2023/08/01 00:10:30;;;;;;;7.00;3.50;;;;;;;18.13;100.00;156022.50;5045220;28;20549;-77
2023/08/01 00:12:58;;;;;;;4.00;3.13;;;;;;;18.11;100.00;156015.94;5037321;28;20460;-77
2023/08/01 00:15:25;;;;;;;4.17;3.77;;;;;;;18.12;100.00;156019.88;5043506;28;21078;-77
2023/08/01 00:17:52;;;;;;;3.90;3.23;;;;;;;18.11;100.00;156015.94;5031250;28;20470;-77
2023/08/01 00:20:18;;;;;;;4.20;3.50;;;;;;;18.04;100.00;155999.03;5058692;28;20471;-77
2023/08/01 00:22:45;;;;;;;3.80;3.10;;;;;;;18.06;100.00;156004.22;5043181;28;20456;-77
2023/08/01 00:25:12;;;;;;;4.53;3.80;;;;;;;18.01;100.00;155991.22;5046849;28;20461;-77
2023/08/01 00:27:38;;;;;;;4.40;3.10;;;;;;;18.02;100.00;155993.81;5043630;28;20454;-77
2023/08/01 00:30:08;;;;;;;4.73;3.80;;;;;;;18.03;100.00;155995.16;5039943;28;20883;-77
2023/08/01 00:32:35;;;;;;;4.60;3.33;;;;;;;18.07;100.00;156005.53;5057818;28;20479;-77
2023/08/01 00:35:02;;;;;;;4.63;3.63;;;;;;;18.05;100.00;156001.66;5018526;28;20528;-77
2023/08/01 00:37:29;;;;;;;5.33;3.50;;;;;;;18.04;100.00;155997.72;5042225;28;20548;-77
2023/08/01 00:39:55;;;;;;;7.50;3.77;;;;;;;18.05;100.00;156001.66;5044808;28;20541;-77
2023/08/01 00:42:22;;;;;;;4.63;2.93;;;;;;;18.05;100.00;156001.66;5040473;28;20518;-77
2023/08/01 00:44:49;;;;;;;4.93;4.07;;;;;;;18.01;100.00;155991.22;5039497;28;20792;-77
2023/08/01 00:47:17;;;;;;;4.67;3.30;;;;;;;18.03;100.00;155995.16;5044192;28;20801;-77
2023/08/01 00:49:43;;;;;;;3.87;2.83;;;;;;;17.99;100.00;155986.00;5031389;28;20447;-76
2023/08/01 00:52:10;;;;;;;5.00;3.37;;;;;;;17.98;100.00;155983.38;5056632;28;20442;-76
2023/08/01 00:54:37;;;;;;;8.37;3.97;;;;;;;17.99;100.00;155986.00;5034557;28;20455;-77
2023/08/01 00:57:04;;;;;;;5.17;3.30;;;;;;;17.98;100.00;155983.38;5040021;28;20471;-77
2023/08/01 00:59:31;;;;;;;4.40;3.00;;;;;;;17.95;100.00;155975.56;5047145;28;20431;-77
2023/08/01 01:01:57;;;;;;;5.20;3.20;;;;;;;18.02;100.00;155993.81;5007867;28;20455;-77
2023/08/01 01:04:26;;;;;;;3.87;3.33;;;;;;;18.01;100.00;155989.88;5009094;28;20478;-77
2023/08/01 01:06:59;;;;;;;3.97;3.23;;;;;;;18.00;100.00;155987.31;5058464;28;20459;-77
2023/08/01 01:09:29;;;;;;;4.80;3.23;;;;;;;17.99;100.00;155986.00;5039235;28;20455;-78
2023/08/01 01:11:55;;;;;;;4.67;3.90;;;;;;;17.99;100.00;155986.00;5014332;28;20467;-78
2023/08/01 01:14:22;;;;;;;4.60;3.20;;;;;;;17.94;100.00;155973.00;5049087;28;20447;-77
2023/08/01 01:16:50;;;;;;;5.03;3.70;;;;;;;17.94;100.00;155971.69;5037750;28;20447;-78
2023/08/01 01:19:17;;;;;;;6.10;3.43;;;;;;;17.92;100.00;155966.50;5031459;28;20445;-78
2023/08/01 01:21:45;;;;;;;4.70;3.50;;;;;;;17.90;100.00;155962.56;5029759;28;20482;-78
2023/08/01 01:24:14;;;;;;;6.20;3.30;;;;;;;17.95;100.00;155975.56;5032365;28;20474;-77
2023/08/01 01:26:41;;;;;;;5.17;3.90;;;;;;;17.96;100.00;155978.19;5035584;28;20554;-77
2023/08/01 01:29:09;;;;;;;6.50;3.30;;;;;;;17.97;100.00;155980.81;5045699;28;21032;-77
2023/08/01 01:31:36;;;;;;;4.50;3.30;;;;;;;17.95;100.00;155975.56;5028216;28;20970;-77
2023/08/01 01:34:02;;;;;;;5.20;3.63;;;;;;;17.94;100.00;155973.00;5008671;28;20554;-77
2023/08/01 01:36:30;;;;;;;4.10;3.23;;;;;;;17.99;100.00;155984.69;5010826;28;20536;-76
2023/08/01 01:38:58;;;;;;;4.10;3.70;;;;;;;17.96;100.00;155978.19;5039323;28;20443;-77
2023/08/01 01:41:25;;;;;;;4.70;3.17;;;;;;;17.88;100.00;155957.34;5021084;28;20455;-77
2023/08/01 01:43:51;;;;;;;5.80;4.13;;;;;;;17.89;100.00;155958.66;5045554;28;20947;-77
2023/08/01 01:46:18;;;;;;;4.27;3.73;;;;;;;17.85;100.00;155949.53;5037995;28;20531;-77
2023/08/01 01:48:45;;;;;;;3.50;3.20;;;;;;;17.85;100.00;155949.53;5028661;28;20465;-77
2023/08/01 01:51:11;;;;;;;4.80;3.60;;;;;;;17.84;100.00;155945.66;5041590;28;20465;-77
2023/08/01 01:53:38;;;;;;;4.50;3.80;;;;;;;17.79;100.00;155933.91;5033382;28;20459;-76
2023/08/01 01:56:06;;;;;;;4.83;3.80;;;;;;;17.76;100.00;155924.81;5012969;28;20455;-77
2023/08/01 01:58:33;;;;;;;5.80;3.50;;;;;;;17.75;100.00;155923.50;5042874;28;20455;-76
2023/08/01 02:00:59;;;;;;;4.03;3.20;;;;;;;17.75;100.00;155923.50;5053417;28;20458;-77
2023/08/01 02:03:26;;;;;;;5.30;3.77;;;;;;;17.72;100.00;155915.69;5049397;28;20520;-77
2023/08/01 02:05:53;;;;;;;4.30;3.33;;;;;;;17.75;100.00;155923.50;5056907;28;20455;-77
2023/08/01 02:08:20;;;;;;;6.20;3.50;;;;;;;17.74;100.00;155919.63;5061445;28;20455;-77
2023/08/01 02:10:46;;;;;;;3.80;3.50;;;;;;;17.72;100.00;155915.69;5010298;28;20456;-76
2023/08/01 02:13:14;;;;;;;4.90;3.63;;;;;;;17.73;100.00;155918.31;5050090;28;20469;-77
2023/08/01 02:15:41;;;;;;;6.57;4.37;;;;;;;17.75;100.00;155923.50;5041972;28;20439;-77
2023/08/01 02:18:08;;;;;;;4.73;3.13;;;;;;;17.76;100.00;155924.81;5052646;28;20561;-77
2023/08/01 02:20:34;;;;;;;5.50;3.83;;;;;;;17.73;100.00;155917.00;5042874;28;20761;-77
2023/08/01 02:23:01;;;;;;;5.37;3.50;;;;;;;17.70;100.00;155910.50;5038522;28;20462;-77
2023/08/01 02:25:27;;;;;;;6.73;4.10;;;;;;;17.73;100.00;155917.00;5036688;28;20476;-76
2023/08/01 02:27:54;;;;;;;4.43;3.40;;;;;;;17.69;100.00;155907.88;5033450;28;20566;-76
2023/08/01 02:30:22;;;;;;;4.80;3.50;;;;;;;17.66;100.00;155898.78;5031793;28;20447;-76
2023/08/01 02:32:49;;;;;;;5.70;4.07;;;;;;;17.63;100.00;155893.53;5020909;28;20533;-77
2023/08/01 02:35:15;;;;;;;6.17;3.40;;;;;;;17.63;100.00;155892.28;5055061;28;20461;-76
2023/08/01 02:37:42;;;;;;;4.10;3.70;;;;;;;17.65;100.00;155897.47;5013857;28;20613;-76
2023/08/01 02:40:10;;;;;;;5.53;3.70;;;;;;;17.62;100.00;155889.66;5046297;28;20466;-76
2023/08/01 02:42:37;;;;;;;5.00;3.90;;;;;;;17.64;100.00;155894.84;5038752;28;20481;-76
2023/08/01 02:45:04;;;;;;;4.17;3.33;;;;;;;17.61;100.00;155888.34;5036091;28;20482;-76
2023/08/01 02:47:32;;;;;;;6.20;3.80;;;;;;;17.63;100.00;155892.28;5011373;28;20462;-76
2023/08/01 02:49:59;;;;;;;5.23;4.40;;;;;;;17.63;100.00;155892.28;5009206;28;20456;-76
2023/08/01 02:52:25;;;;;;;4.03;3.50;;;;;;;17.63;100.00;155893.53;5035215;28;20462;-76
2023/08/01 02:54:52;;;;;;;4.50;3.90;;;;;;;17.60;100.00;155885.78;5035580;28;20905;-78
2023/08/01 02:57:18;;;;;;;4.50;3.87;;;;;;;17.61;100.00;155887.03;5032602;28;20451;-78
2023/08/01 02:59:45;;;;;;;5.60;4.20;;;;;;;17.59;100.00;155883.16;5045740;28;20464;-78
2023/08/01 03:02:12;;;;;;;4.30;3.50;;;;;;;17.61;100.00;155888.34;5046593;28;20462;-75
2023/08/01 03:04:40;;;;;;;5.90;3.97;;;;;;;17.64;100.00;155894.84;5034539;28;20475;-77
2023/08/01 03:07:07;;;;;;;4.27;3.53;;;;;;;17.62;100.00;155889.66;5043630;28;20465;-78
2023/08/01 03:09:33;;;;;;;4.43;3.63;;;;;;;17.62;100.00;155889.66;5041245;28;20448;-78
2023/08/01 03:12:00;;;;;;;5.33;3.30;;;;;;;17.61;100.00;155887.03;5049851;28;20975;-78
2023/08/01 03:14:27;;;;;;;6.03;4.10;;;;;;;17.62;100.00;155889.66;5040738;28;20551;-78
2023/08/01 03:16:53;;;;;;;5.90;4.47;;;;;;;17.62;100.00;155890.97;5039647;28;20451;-78
2023/08/01 03:19:20;;;;;;;6.50;3.37;;;;;;;17.60;100.00;155885.78;5031613;28;20451;-78
2023/08/01 03:21:48;;;;;;;5.43;4.10;;;;;;;17.60;100.00;155884.47;5049401;28;20455;-78
2023/08/01 03:24:15;;;;;;;4.47;3.67;;;;;;;17.59;100.00;155881.84;5018825;28;20479;-78
2023/08/01 03:26:41;;;;;;;5.80;4.57;;;;;;;17.59;100.00;155883.16;5049684;28;20456;-78
2023/08/01 03:29:09;;;;;;;5.10;3.70;;;;;;;17.61;100.00;155888.34;5030333;28;21157;-78
2023/08/01 03:31:35;;;;;;;4.93;3.90;;;;;;;17.63;100.00;155892.28;5048644;28;20447;-78
2023/08/01 03:34:02;;;;;;;4.07;3.03;;;;;;;17.64;100.00;155894.84;5065299;28;20530;-78
2023/08/01 03:36:28;;;;;;;4.80;3.70;;;;;;;17.63;100.00;155892.28;5055856;28;20828;-78
2023/08/01 03:38:56;;;;;;;4.10;3.47;;;;;;;17.64;100.00;155894.84;5028209;28;20454;-77
2023/08/01 03:41:23;;;;;;;7.53;3.50;;;;;;;17.63;100.00;155893.53;5042395;28;20451;-78
2023/08/01 03:43:49;;;;;;;4.63;3.67;;;;;;;17.66;100.00;155898.78;5035220;28;20451;-78
2023/08/01 03:46:16;;;;;;;4.70;3.13;;;;;;;17.68;100.00;155905.28;5042924;28;20454;-77
2023/08/01 03:48:43;;;;;;;4.00;3.17;;;;;;;17.69;100.00;155907.88;5057320;28;20464;-77
2023/08/01 03:51:10;;;;;;;3.77;3.43;;;;;;;17.69;100.00;155906.56;5031542;28;21033;-78
2023/08/01 03:53:37;;;;;;;4.90;3.27;;;;;;;17.69;100.00;155906.56;5048347;28;20470;-78
2023/08/01 03:56:05;;;;;;;4.60;3.80;;;;;;;17.69;100.00;155907.88;5028046;28;20435;-78
2023/08/01 03:58:31;;;;;;;4.90;2.70;;;;;;;17.69;100.00;155907.88;5032761;28;20460;-78
2023/08/01 04:00:58;;;;;;;4.50;4.00;;;;;;;17.70;100.00;155910.50;5041770;28;20966;-78
2023/08/01 04:03:27;;;;;;;4.67;3.57;;;;;;;17.68;100.00;155905.28;5042056;28;20543;-76
2023/08/01 04:05:53;;;;;;;5.47;3.57;;;;;;;17.68;100.00;155905.28;5048375;28;20837;-76
2023/08/01 04:08:20;;;;;;;5.30;3.87;;;;;;;17.71;100.00;155913.13;5048770;28;20461;-78
2023/08/01 04:10:46;;;;;;;4.57;3.63;;;;;;;17.71;100.00;155913.13;5048780;28;20462;-78
2023/08/01 04:13:14;;;;;;;3.60;3.23;;;;;;;17.71;100.00;155911.81;5050055;28;20462;-78
2023/08/01 04:15:41;;;;;;;4.80;3.40;;;;;;;17.74;100.00;155920.88;5053842;28;20458;-78
2023/08/01 04:18:07;;;;;;;5.70;3.37;;;;;;;17.75;100.00;155922.19;5053569;28;20462;-78
2023/08/01 04:20:34;;;;;;;3.20;2.87;;;;;;;17.81;100.00;155937.84;5042719;28;20458;-78
2023/08/01 04:23:00;;;;;;;4.67;3.70;;;;;;;17.77;100.00;155928.69;5044953;28;20467;-78
2023/08/01 04:25:28;;;;;;;3.40;2.60;;;;;;;17.79;100.00;155933.91;5025786;28;20482;-77
2023/08/01 04:27:54;;;;;;;5.90;3.37;;;;;;;17.76;100.00;155926.13;5041645;28;20507;-77
2023/08/01 04:30:22;;;;;;;5.13;3.60;;;;;;;17.77;100.00;155928.69;5026457;28;20820;-78
2023/08/01 04:32:49;;;;;;;6.00;4.50;;;;;;;17.77;100.00;155927.38;5042801;28;20490;-77
2023/08/01 04:35:15;;;;;;;4.30;3.47;;;;;;;17.79;100.00;155932.63;5035121;28;20454;-77
2023/08/01 04:37:42;;;;;;;3.90;3.03;;;;;;;17.81;100.00;155939.16;5039620;28;20546;-77
2023/08/01 04:40:09;;;;;;;4.63;3.77;;;;;;;17.84;100.00;155946.97;5053470;28;20770;-78
2023/08/01 04:42:36;;;;;;;6.60;3.87;;;;;;;17.86;100.00;155952.16;5041457;28;20489;-77
2023/08/01 04:45:03;;;;;;;4.50;3.67;;;;;;;17.85;100.00;155948.22;5047787;28;20471;-77
2023/08/01 04:47:31;;;;;;;5.13;3.47;;;;;;;17.84;100.00;155946.97;5040085;28;20461;-78
2023/08/01 04:49:58;;;;;;;7.27;3.53;;;;;;;17.86;100.00;155952.16;5043879;28;20454;-78
2023/08/01 04:52:24;;;;;;;7.43;3.40;;;;;;;17.91;100.00;155963.88;5047025;28;20458;-78
2023/08/01 04:54:51;;;;;;;4.60;3.70;;;;;;;17.86;100.00;155952.16;5031357;28;20573;-77
2023/08/01 04:57:17;;;;;;;4.80;3.70;;;;;;;17.90;100.00;155962.56;5059361;28;20548;-77
2023/08/01 04:59:44;;;;;;;8.40;4.60;;;;;;;17.90;100.00;155962.56;5046413;28;20932;-77
2023/08/01 05:02:11;;;;;;;6.77;3.03;;;;;;;17.85;100.00;155949.53;5045435;28;20517;-77
2023/08/01 05:04:39;;;;;;;4.90;3.30;;;;;;;17.83;100.00;155944.34;5050763;28;20498;-78
2023/08/01 05:07:06;;;;;;;5.13;3.30;;;;;;;17.84;100.00;155946.97;5032563;28;20466;-77
2023/08/01 05:09:33;;;;;;;5.30;3.70;;;;;;;17.81;100.00;155937.84;5041629;28;20489;-77
2023/08/01 05:11:59;;;;;;;5.50;3.30;;;;;;;17.79;100.00;155933.91;5036045;28;20473;-78
2023/08/01 05:14:26;;;;;;;6.70;3.93;;;;;;;17.76;100.00;155926.13;5042642;28;20538;-78
2023/08/01 05:16:52;;;;;;;4.80;3.50;;;;;;;17.72;100.00;155915.69;5038764;28;20467;-78
2023/08/01 05:19:19;;;;;;;3.90;3.23;;;;;;;17.71;100.00;155911.81;5042725;28;20451;-78
2023/08/01 05:21:49;;;;;;;3.83;3.00;;;;;;;17.70;100.00;155910.50;5044345;28;20459;-78
2023/08/01 05:24:16;;;;;;;5.50;3.37;;;;;;;17.71;100.00;155911.81;5059247;28;20465;-78
2023/08/01 05:26:42;;;;;;;4.10;3.07;;;;;;;17.70;100.00;155910.50;5039328;28;20586;-78
2023/08/01 05:29:09;;;;;;;4.77;3.87;;;;;;;17.74;100.00;155920.88;5019704;28;20455;-78
2023/08/01 05:31:36;;;;;;;4.43;3.87;;;;;;;17.78;100.00;155931.31;5022530;28;20813;-76
2023/08/01 05:34:05;;;;;;;5.13;3.83;;;;;;;17.78;100.00;155931.31;5041567;28;20474;-76
2023/08/01 05:36:34;;;;;;;6.00;3.57;;;;;;;17.81;100.00;155939.16;5033692;28;20886;-76
2023/08/01 05:39:02;;;;;;;5.13;4.03;;;;;;;17.76;100.00;155926.13;5043719;28;20442;-77
2023/08/01 05:41:28;;;;;;;4.77;3.77;;;;;;;17.70;100.00;155910.50;5041613;28;20451;-77
2023/08/01 05:43:55;;;;;;;5.00;3.63;;;;;;;17.73;100.00;155918.31;5027443;28;20462;-77
2023/08/01 05:46:22;;;;;;;6.03;3.90;;;;;;;17.73;100.00;155918.31;5042661;28;20842;-77
2023/08/01 05:48:48;;;;;;;5.10;4.00;;;;;;;17.71;100.00;155913.13;5038455;28;20463;-77
2023/08/01 05:51:15;;;;;;;7.50;4.47;;;;;;;17.78;100.00;155930.00;5039677;28;20450;-77
2023/08/01 05:53:41;;;;;;;6.20;3.60;;;;;;;17.73;100.00;155918.31;5008886;28;20485;-77
2023/08/01 05:56:09;;;;;;;4.37;3.67;;;;;;;17.76;100.00;155924.81;5053843;28;20446;-77
2023/08/01 05:58:36;;;;;;;5.27;3.23;;;;;;;17.78;100.00;155931.31;5040535;28;20466;-77
2023/08/01 06:01:03;;;;;;;5.17;4.20;;;;;;;17.87;100.00;155954.72;5042727;28;20783;-79
2023/08/01 06:03:32;;;;;;;4.20;3.80;;;;;;;17.83;100.00;155944.34;5053157;28;20458;-77
2023/08/01 06:05:59;;;;;;;4.70;3.57;;;;;;;17.91;100.00;155965.16;5038424;28;20533;-77
2023/08/01 06:08:26;;;;;;;6.20;4.03;;;;;;;17.88;100.00;155956.03;5042436;28;20542;-77
2023/08/01 06:10:52;;;;;;;4.57;3.70;;;;;;;17.87;100.00;155954.72;5040456;28;20455;-77
2023/08/01 06:13:20;;;;;;;4.40;3.03;;;;;;;17.84;100.00;155946.97;5042207;28;20463;-77
2023/08/01 06:15:47;;;;;;;6.37;3.67;;;;;;;17.89;100.00;155959.97;5040615;28;20459;-77
2023/08/01 06:18:13;;;;;;;4.40;3.47;;;;;;;17.93;100.00;155969.06;5043506;28;20451;-77
2023/08/01 06:20:40;;;;;;;5.57;4.50;;;;;;;17.89;100.00;155958.66;5040766;28;20455;-77
2023/08/01 06:23:08;;;;;;;4.63;3.80;;;;;;;17.90;100.00;155962.56;5039726;28;20529;-77
2023/08/01 06:25:35;;;;;;;5.73;3.90;;;;;;;17.87;100.00;155954.72;5034685;28;20880;-77
2023/08/01 06:28:01;;;;;;;5.00;3.70;;;;;;;17.88;100.00;155957.34;5057211;28;20451;-77
2023/08/01 06:30:29;;;;;;;4.40;3.37;;;;;;;17.84;100.00;155945.66;5059150;28;20459;-76
2023/08/01 06:32:56;;;;;;;4.20;3.53;;;;;;;17.82;100.00;155941.72;5042633;28;20474;-77
2023/08/01 06:35:23;;;;;;;3.90;3.50;;;;;;;17.79;100.00;155933.91;5040964;28;20443;-77
2023/08/01 06:37:49;;;;;;;5.73;3.73;;;;;;;17.76;100.00;155926.13;5029311;28;20455;-77
2023/08/01 06:40:16;;;;;;;4.37;3.40;;;;;;;17.73;100.00;155918.31;5027287;28;20466;-77
2023/08/01 06:42:42;;;;;;;5.10;3.67;;;;;;;17.72;100.00;155915.69;5045463;28;20549;-77
2023/08/01 06:45:09;;;;;;;4.90;3.63;;;;;;;17.67;100.00;155902.69;5021239;28;20516;-77
2023/08/01 06:47:38;;;;;;;4.80;3.50;;;;;;;17.63;100.00;155892.28;5043357;28;20828;-77
2023/08/01 06:50:05;;;;;;;4.77;3.80;;;;;;;17.64;100.00;155894.84;5046377;28;20450;-77
2023/08/01 06:52:31;;;;;;;4.77;3.83;;;;;;;17.59;100.00;155883.16;5038238;28;20455;-77
2023/08/01 06:54:58;;;;;;;6.07;4.67;;;;;;;17.57;100.00;155877.97;5062575;28;20461;-77
2023/08/01 06:57:25;;;;;;;6.43;4.30;;;;;;;17.53;100.00;155867.53;5029597;28;20479;-77
2023/08/01 06:59:51;;;;;;;4.93;4.17;;;;;;;17.46;100.00;155849.25;5061321;28;20458;-76
2023/08/01 07:02:18;;;;;;;5.40;4.33;;;;;;;17.42;100.00;155838.81;5045288;28;20860;-76
2023/08/01 07:04:46;;;;;;;5.60;4.07;;;;;;;17.41;100.00;155834.94;5026214;28;20474;-76
2023/08/01 07:07:12;;;;;;;7.97;4.73;;;;;;;17.40;100.00;155833.63;5041535;28;20510;-76
2023/08/01 07:09:39;;;;;;;8.60;4.03;;;;;;;17.41;100.00;155834.94;5043266;28;20486;-76
2023/08/01 07:12:07;;;;;;;5.40;4.80;;;;;;;17.38;100.00;155828.44;5060400;28;20463;-75
2023/08/01 07:14:33;;;;;;;5.47;4.10;;;;;;;17.40;100.00;155832.31;5042052;28;20463;-76
2023/08/01 07:17:00;;;;;;;7.07;4.60;;;;;;;17.38;100.00;155827.13;5044578;28;20458;-76
2023/08/01 07:19:26;;;;;;;6.83;4.53;;;;;;;17.36;100.00;155823.25;5032096;28;20846;-76
2023/08/01 07:21:54;;;;;;;4.93;4.10;;;;;;;17.39;100.00;155829.75;5042926;28;20481;-76
2023/08/01 07:24:21;;;;;;;6.23;4.40;;;;;;;17.37;100.00;155824.50;5044975;28;20451;-76
2023/08/01 07:26:47;;;;;;;5.20;3.97;;;;;;;17.40;100.00;155832.31;5037901;28;20980;-77
2023/08/01 07:29:15;;;;;;;5.97;4.60;;;;;;;17.38;100.00;155827.13;5046152;28;20454;-76
2023/08/01 07:31:42;;;;;;;6.70;4.13;;;;;;;17.35;100.00;155819.31;5042477;28;20459;-76
2023/08/01 07:34:09;;;;;;;5.63;4.00;;;;;;;17.31;100.00;155810.22;5034349;28;20459;-76
2023/08/01 07:36:35;;;;;;;6.00;4.30;;;;;;;17.33;100.00;155814.13;5042825;28;20455;-77
2023/08/01 07:39:03;;;;;;;7.93;4.20;;;;;;;17.31;100.00;155810.22;5021724;28;20456;-76
2023/08/01 07:41:33;;;;;;;5.90;4.70;;;;;;;17.27;100.00;155798.47;5021432;28;20455;-76
2023/08/01 07:44:02;;;;;;;7.00;4.90;;;;;;;17.28;100.00;155802.41;5041065;28;20504;-85
2023/08/01 07:46:28;;;;;;;5.70;4.07;;;;;;;17.25;100.00;155794.59;5047915;28;20485;-84
2023/08/01 07:48:55;;;;;;;4.80;3.93;;;;;;;17.24;100.00;155790.66;5030540;28;20463;-85
2023/08/01 07:51:22;;;;;;;5.07;4.47;;;;;;;17.21;100.00;155784.16;5048200;28;20530;-84
2023/08/01 07:53:48;;;;;;;4.20;3.40;;;;;;;17.20;100.00;155780.28;5062540;28;20880;-85
2023/08/01 07:56:16;;;;;;;4.67;4.10;;;;;;;17.18;100.00;155775.09;5065126;28;20454;-86
2023/08/01 07:58:43;;;;;;;5.23;3.90;;;;;;;17.17;100.00;155772.47;5048107;28;20451;-86
2023/08/01 08:01:09;;;;;;;4.10;3.07;;;;;;;17.12;100.00;155759.47;5047588;28;20454;-88
2023/08/01 08:03:36;;;;;;;3.20;2.47;;;;;;;17.10;100.00;155754.25;5033224;28;20821;-87
2023/08/01 08:06:03;;;;;;;4.27;2.50;;;;;;;17.08;100.00;155750.34;5041619;28;20478;-88
2023/08/01 08:08:30;;;;;;;3.90;2.83;;;;;;;17.09;100.00;155751.63;5042281;28;20965;-86
2023/08/01 08:10:57;;;;;;;4.63;2.80;;;;;;;17.09;100.00;155751.63;5040540;28;20493;-87
2023/08/01 08:13:25;;;;;;;3.20;2.30;;;;;;;17.06;100.00;155745.13;5044130;28;20458;-87
2023/08/01 08:15:51;;;;;;;4.57;3.00;;;;;;;17.10;100.00;155754.25;5044165;28;20978;-85
2023/08/01 08:18:19;;;;;;;3.70;2.50;;;;;;;17.09;100.00;155752.94;5044345;28;20969;-85
2023/08/01 08:20:46;;;;;;;5.10;2.83;;;;;;;17.08;100.00;155749.06;5044526;28;20452;-85
2023/08/01 08:23:13;;;;;;;5.23;2.87;;;;;;;17.10;100.00;155755.56;5047988;28;20493;-85
2023/08/01 08:25:40;;;;;;;4.47;3.00;;;;;;;17.12;100.00;155759.47;5046523;28;20475;-85
2023/08/01 08:28:07;;;;;;;3.27;2.60;;;;;;;17.09;100.00;155752.94;5011119;28;20462;-84
2023/08/01 08:30:36;;;;;;;3.53;3.00;;;;;;;17.06;100.00;155745.13;5047499;28;20446;-84
2023/08/01 08:33:06;;;;;;;3.90;2.87;;;;;;;17.07;100.00;155747.75;5041876;28;20498;-85
2023/08/01 08:35:33;;;;;;;3.10;2.40;;;;;;;17.05;100.00;155743.81;5044900;28;20462;-85
2023/08/01 08:38:00;;;;;;;4.20;2.90;;;;;;;17.07;100.00;155747.75;5025702;28;20489;-84
2023/08/01 08:40:30;;;;;;;4.40;2.87;;;;;;;17.09;100.00;155752.94;5042639;28;20956;-84
2023/08/01 08:42:57;;;;;;;2.87;2.33;;;;;;;17.11;100.00;155758.16;5060444;28;20459;-84
2023/08/01 08:45:24;;;;;;;5.10;3.37;;;;;;;17.16;100.00;155769.84;5023290;28;20455;-84
2023/08/01 08:47:56;;;;;;;3.97;3.23;;;;;;;17.22;100.00;155786.78;5011447;28;20834;-84
2023/08/01 08:50:23;;;;;;;4.50;3.30;;;;;;;17.32;100.00;155811.50;5024765;28;21279;-84
2023/08/01 08:52:50;;;;;;;5.53;3.73;;;;;;;17.40;100.00;155832.31;5028107;28;20872;-84
2023/08/01 08:55:16;;;;;;;5.93;3.10;;;;;;;17.49;100.00;155855.78;5027952;28;20459;-85
2023/08/01 08:57:44;;;;;;;4.17;2.97;;;;;;;17.49;100.00;155855.78;5042204;28;20903;-84
2023/08/01 09:00:12;;;;;;;3.30;2.70;;;;;;;17.55;100.00;155872.72;5036029;28;20969;-84
2023/08/01 09:02:39;;;;;;;3.33;2.67;;;;;;;17.61;100.00;155887.03;5026399;28;20459;-84
2023/08/01 09:05:08;;;;;;;3.87;3.00;;;;;;;17.68;100.00;155905.28;5015220;28;20589;-84
2023/08/01 09:07:35;;;;;;;6.07;3.53;;;;;;;17.75;100.00;155922.19;5029944;28;20741;-84
2023/08/01 09:10:01;;;;;;;4.40;3.53;;;;;;;17.76;100.00;155926.13;5013265;28;20447;-84
2023/08/01 09:12:28;;;;;;;4.53;3.03;;;;;;;17.77;100.00;155928.69;5047107;28;20459;-84
2023/08/01 09:14:57;;;;;;;3.70;2.87;;;;;;;17.76;100.00;155926.13;5043641;28;20455;-84
2023/08/01 09:17:24;;;;;;;3.47;2.20;;;;;;;17.76;100.00;155924.81;5042468;28;20454;-84
2023/08/01 09:19:56;;;;;;;4.03;2.40;;;;;;;17.76;100.00;155924.81;5048890;28;20537;-84
2023/08/01 09:22:24;;;;;;;3.33;2.37;;;;;;;17.74;100.00;155920.88;5035841;28;20452;-84
2023/08/01 09:24:54;;;;;;;3.60;2.33;;;;;;;17.73;100.00;155917.00;5043207;28;20447;-84
2023/08/01 09:27:23;;;;;;;3.00;2.03;;;;;;;17.73;100.00;155918.31;5042714;28;20491;-84
2023/08/01 09:29:49;;;;;;;3.90;1.90;;;;;;;17.75;100.00;155923.50;5045333;28;20536;-84
2023/08/01 09:32:16;;;;;;;2.80;2.20;;;;;;;17.74;100.00;155920.88;5026871;28;20486;-84
2023/08/01 09:34:43;;;;;;;2.53;2.07;;;;;;;17.75;100.00;155923.50;5026358;28;20579;-84
2023/08/01 09:37:10;;;;;;;3.00;2.17;;;;;;;17.78;100.00;155931.31;5046018;28;20540;-84
2023/08/01 09:39:38;;;;;;;2.50;1.77;;;;;;;17.78;100.00;155931.31;5043461;28;20489;-83
2023/08/01 09:42:04;;;;;;;3.03;1.80;;;;;;;17.83;100.00;155944.34;5042187;28;20525;-84
2023/08/01 09:44:31;;;;;;;3.63;2.20;;;;;;;17.89;100.00;155959.97;5026624;28;20443;-84
2023/08/01 09:46:59;;;;;;;3.00;2.20;;;;;;;17.97;100.00;155980.81;5059832;28;20489;-84
2023/08/01 09:49:25;;;;;;;2.50;1.53;;;;;;;17.98;100.00;155983.38;5044014;28;20819;-84
2023/08/01 09:51:52;;;;;;;2.30;1.70;;;;;;;18.03;100.00;155996.41;5009110;28;20540;-85
2023/08/01 09:54:20;;;;;;;2.07;1.40;;;;;;;18.06;100.00;156004.22;5044768;28;20454;-84
2023/08/01 09:56:50;;;;;;;2.37;1.70;;;;;;;18.11;100.00;156017.25;5062456;28;20826;-85
2023/08/01 09:59:20;;;;;;;2.07;1.60;;;;;;;18.17;100.00;156031.56;5045551;28;20505;-84
2023/08/01 10:01:50;;;;;;;2.73;1.60;;;;;;;18.19;100.00;156038.09;5046393;28;20463;-84
2023/08/01 10:04:17;;;;;;;1.93;1.40;;;;;;;18.25;100.00;156053.72;5033250;28;20448;-84
2023/08/01 10:06:48;;;;;;;2.37;1.40;;;;;;;18.32;100.00;156069.38;5031286;28;20490;-84
2023/08/01 10:09:15;;;;;;;1.83;1.20;;;;;;;18.34;100.00;156075.88;5054667;28;20538;-84
2023/08/01 10:11:42;;;;;;;2.10;1.00;;;;;;;18.32;100.00;156069.38;5063131;28;20848;-84
2023/08/01 10:14:10;;;;;;;2.17;1.00;;;;;;;18.34;100.00;156074.56;5043039;28;20467;-84
2023/08/01 10:16:37;;;;;;;1.90;1.20;;;;;;;18.36;100.00;156081.06;5050422;28;20490;-83
2023/08/01 10:19:04;;;;;;;2.00;1.37;;;;;;;18.38;100.00;156086.28;5062436;28;20821;-85
2023/08/01 10:21:30;;;;;;;1.40;0.80;;;;;;;18.39;100.00;156087.59;5039354;28;21046;-86
2023/08/01 10:23:59;;;;;;;3.00;1.30;;;;;;;18.44;100.00;156100.59;5046227;28;20959;-84
2023/08/01 10:26:26;;;;;;;2.50;1.10;;;;;;;18.48;100.00;156112.38;5013502;28;20477;-85
2023/08/01 10:28:53;;;;;;;1.50;0.80;;;;;;;18.49;100.00;156113.66;5047521;28;20454;-84
2023/08/01 10:31:22;;;;;;;1.87;0.93;;;;;;;18.50;100.00;156117.59;5028133;28;20457;-84
2023/08/01 10:33:49;;;;;;;1.50;0.83;;;;;;;18.50;100.00;156116.31;5029336;28;20980;-82
2023/08/01 10:36:17;;;;;;;2.10;1.07;;;;;;;18.50;100.00;156116.31;5046060;28;20466;-83
2023/08/01 10:38:47;;;;;;;1.40;1.00;;;;;;;18.59;100.00;156139.72;5040315;28;20517;-84
2023/08/01 10:41:21;;;;;;;1.17;0.80;;;;;;;18.62;100.00;156148.84;5028327;28;20466;-85
2023/08/01 10:43:48;;;;;;;3.10;0.90;;;;;;;18.67;100.00;156160.56;5045524;28;20479;-84
2023/08/01 10:46:15;;;;;;;1.57;0.70;;;;;;;18.72;100.00;156174.91;5047019;28;20451;-84
2023/08/01 10:48:50;;;;;;;1.87;1.00;;;;;;;18.85;100.00;156207.47;5028836;28;21098;-84
2023/08/01 10:51:17;;;;;;;1.40;0.83;;;;;;;19.01;100.00;156249.16;5032464;28;20454;-84
2023/08/01 10:53:44;;;;;;;2.83;1.00;;;;;;;19.21;100.00;156300.00;5046320;28;20466;-84
2023/08/01 10:56:17;;;;;;;1.33;0.70;;;;;;;19.34;100.00;156335.19;5047527;28;20605;-85
2023/08/01 10:58:43;;;;;;;2.00;0.83;;;;;;;19.40;100.00;156350.91;5051944;28;20478;-84
2023/08/01 11:01:10;;;;;;;1.20;0.70;;;;;;;19.40;100.00;156350.91;5050535;28;20456;-84
2023/08/01 11:03:37;;;;;;;1.10;0.63;;;;;;;19.33;100.00;156332.56;5027407;28;20490;-84
2023/08/01 11:06:05;;;;;;;1.30;0.97;;;;;;;19.20;100.00;156298.69;5051168;28;20880;-84
2023/08/01 11:08:35;;;;;;;1.77;0.90;;;;;;;19.15;100.00;156285.66;5045669;28;20888;-84
2023/08/01 11:11:02;;;;;;;1.93;0.80;;;;;;;19.19;100.00;156296.13;5051039;28;20449;-84
2023/08/01 11:13:34;;;;;;;2.07;1.00;;;;;;;19.26;100.00;156313.03;5031195;28;20450;-84
2023/08/01 11:16:02;;;;;;;1.50;1.00;;;;;;;19.29;100.00;156322.16;5032071;28;20558;-84